Airfield :
LOGIN :

Register | Disclaimer

   EN    FR    IT 

 










Legend :    VFR   Marginal VFR   IFR   Intensive IFR   Very Intensive IFR
Visi :
Ceiling :
>= 8 km
>= 3000ft
5 to 8 km
1000 to 3000 ft
1500m to 5 km
500 to 1000 ft
800 to 1500m
200 to 500 ft
< 800m
< 200 ft
Symbols :   Thunderstorms  Fog  Heavy snow  Heavy precipitations  Wind > 20 kt
SIGMETs :     Misc.  Thunderstorms  Icing  Turbulence  Mountain Waves  Volcanic Ashes







- Airport Elevation : 622 ft
- IATA code : BRS
- Download approach charts


EGGD - Bristol Int.

CURRENT METAR :
  • 112020Z AUTO 12007KT 9999 BKN020 07/07 Q1020

EXPIRED METARs :
  • 111950Z AUTO 12007KT 9999 NCD 07/07 Q1020
  • 111920Z AUTO 12008KT 9999 SCT014 07/07 Q1020
  • 111850Z AUTO 13009KT 9999 NCD 08/07 Q1020
  • 111820Z AUTO 14008KT 9999 NCD 08/07 Q1020
  • 111750Z AUTO 15011KT 9999 SCT028 08/07 Q1020

TAF TAF EGGD
Valid from the 11 at 18:00 until the 12 at 18:00 UTC


111658Z 1118/1218 14009KT 9999 FEW010 BKN025
TEMPO 1118/1120 5000 -RADZ BKN010
PROB30
TEMPO 1118/1120 2000 DZ BKN005
PROB40
TEMPO 1120/1213 8000 BKN012
PROB30
TEMPO 1213/1218 13015G25KT BKN012
ATIS : +44 1275 473 666
No reported NOTAMs for that airfield.



MET'MAP, your aeronautical weather chart ! - Copyright ORBIFLY December 2007 - Disclaimer

ORBIFLY MET'MAP TEAM :

Programming & Development : Alexandra Zaïnal
Concept & Development : Baudouin d'Aumeries
Co-Development & Prog : Marc-Olivier Méhu
Technical & hardware support : Manuel Goepfert

Contact : metmap@orbifly.com




SOURCES & CREDITS :

   NOAA